OMS weather

Omsk Central Airport
Omsk, Omsk Oblast, Russia

Public forecast

Using degrees Celsius for public forecast. Weather courtesy of forecast.io.

METAR (pilot weather report)

Retrieved 2019/09/16 23:30 UTC (20 minutes ago):

UNOO 162330Z 18004MPS CAVOK 12/07 Q1006 R25/CLRD60 NOSIG RMK QFE746

TAF (pilot weather forecast)

Retrieved 2019/09/16 21:21 UTC (2 hours ago):

TAF UNOO 161952Z 1621/1721 18003G09MPS 9999 SCT033CB TEMPO 1621/1703 1000 MIFG BR BECMG 1704/1706 23007G14MPS